Aérodrome :
LOGIN :

S'inscrire | Disclaimer

   EN    FR    IT 

 










Légende :    VFR   VFR Marginal   IFR   IFR Intensif   IFR Très Intensif
Visi : 
Plafond : 
>= 8 km
>= 3000ft
5 à 8 km
1000 à 3000 ft
1500m à 5 km
500 à 1000 ft
800 à 1500m
200 à 500 ft
< 800m
< 200 ft
Symboles :   Orages  Brouillard  Fortes neiges  Fortes précipitations  Vent > 20 kt
SIGMETs :   Divers  Orages  Givrage  Turbulence  Onde Orograph.  Cendres Volcan.







- Altitude de l'aérodrome : 1302 ft
- Code IATA : GNB
- Voir les cartes d'approche


LFLS - Grenoble / St. Geoirs

DERNIER METAR :
  • 191230Z AUTO 34007KT 290V030 CAVOK 27/13 Q1022 NOSIG

METARs EXPIRÉS :
  • 191200Z AUTO 35009KT 310V020 CAVOK 26/14 Q1022 NOSIG
  • 191130Z AUTO 33010KT 280V010 CAVOK 26/14 Q1022 NOSIG
  • 191100Z AUTO 33010KT 290V010 CAVOK 25/13 Q1022 NOSIG
  • 191030Z AUTO 33009KT 300V030 CAVOK 25/13 Q1022 NOSIG
  • 191000Z AUTO 31005KT 270V010 CAVOK 24/14 Q1023 NOSIG

TAF TAF LFLS
Valide du 19 à 09h jusqu'au 20 à 09h UTC


190800Z 1909/2009 34008KT CAVOK
TEMPO 1922/2006 09005KT
ATIS : +33 4 76 65 55 89
Pas de NOTAMs connus pour ce terrain.
2 SIGMETs publiés pour la FIR Marseille (LFMM) :
 
Orages noyés dans la masse
LFMM SIGMET 6 VALID 191300/191500 LFPW
LFMM MARSEILLE FIR/UIR EMBD TS OBS S OF LINE N4100 E00800 - N4100 E00430 TOP FL380 STNR NC=
Orages noyés dans la masse
LFMM SIGMET 5 VALID 191000/191300 LFPW
LFMM MARSEILLE FIR/UIR EMBD TS OBS WI N4115 E00800 - N3900 E00800 - N3900 E00430 - N4100 E00430 - N4200 E00800 - N4115 E00800 TOP FL380 STNR NC=



MET'MAP, la Météo Aéronautique d'un coup d'oeil ! - Copyright ORBIFLY Décembre 2007 - Disclaimer

ORBIFLY MET'MAP TEAM :

Programmation & Développement : Alexandra Zaïnal
Conception & Développement : Baudouin d'Aumeries
Co-Programmation & Développement : Marc-Olivier Méhu
Soutien technique & logistique : Manuel Goepfert

Contact : metmap@orbifly.com




SOURCES & CREDITS :

   NOAA